Time;durP1;ratioP1;P1;durP2;ratioP2;P2;SDS_P1;SDS_P2;PMS_P1;PMS_P2;Temp;Humidity;BMP_temperature;BMP_pressure;BME280_temperature;BME280_humidity;BME280_pressure;Samples;Min_cycle;Max_cycle;Signal;HPM_P1;HPM_P2
2022/08/11 00:01:13;;;;;;;4.10;2.70;;;16.80;76.60;;;;;;5064050;28;20044;-37
2022/08/11 00:03:48;;;;;;;3.42;3.00;;;16.90;75.90;;;;;;5062526;28;20556;-36
2022/08/11 00:06:24;;;;;;;3.60;2.65;;;16.90;79.90;;;;;;5066968;28;20032;-37
2022/08/11 00:08:51;;;;;;;3.28;2.95;;;16.90;77.40;;;;;;5066471;28;20112;-31
2022/08/11 00:11:18;;;;;;;3.30;2.47;;;16.90;78.00;;;;;;5067324;28;20124;-37
2022/08/11 00:13:47;;;;;;;2.60;2.40;;;16.90;76.30;;;;;;5065469;28;20040;-36
2022/08/11 00:16:24;;;;;;;3.10;2.90;;;16.80;76.40;;;;;;5068324;28;20312;-36
2022/08/11 00:18:53;;;;;;;3.25;2.75;;;16.70;75.30;;;;;;5069171;28;20029;-37
2022/08/11 00:21:21;;;;;;;5.97;2.97;;;16.70;76.30;;;;;;5068342;28;20043;-34
2022/08/11 00:23:53;;;;;;;6.00;3.10;;;16.50;77.80;;;;;;5067920;28;20503;-36
2022/08/11 00:26:21;;;;;;;3.28;2.80;;;16.40;77.90;;;;;;5063943;28;20029;-34
2022/08/11 00:28:47;;;;;;;2.95;2.75;;;16.40;78.20;;;;;;5072219;28;21501;-36
2022/08/11 00:31:30;;;;;;;6.30;2.97;;;16.30;80.30;;;;;;5068109;28;20024;-36
2022/08/11 00:33:57;;;;;;;4.35;2.83;;;16.10;80.80;;;;;;5073489;28;20043;-37
2022/08/11 00:36:39;;;;;;;3.90;3.03;;;16.20;81.00;;;;;;5070068;28;20532;-35
2022/08/11 00:39:06;;;;;;;3.10;2.90;;;16.20;81.90;;;;;;5075897;28;20047;-37
2022/08/11 00:41:58;;;;;;;4.30;3.13;;;16.10;83.40;;;;;;5068458;28;20033;-37
2022/08/11 00:44:33;;;;;;;3.22;2.90;;;16.00;86.10;;;;;;5070544;28;20054;-37
2022/08/11 00:47:04;;;;;;;3.15;2.88;;;16.00;85.20;;;;;;5062967;28;20028;-36
2022/08/11 00:49:39;;;;;;;3.90;2.85;;;15.90;85.70;;;;;;5069102;28;20032;-37
2022/08/11 00:52:26;;;;;;;3.42;2.72;;;15.90;84.50;;;;;;5066460;28;20055;-33
2022/08/11 00:55:22;;;;;;;3.10;2.85;;;16.00;85.80;;;;;;5065139;28;20173;-31
2022/08/11 00:58:15;;;;;;;4.97;2.85;;;16.00;85.40;;;;;;5073791;28;20489;-37
2022/08/11 01:01:15;;;;;;;3.10;2.80;;;15.90;87.20;;;;;;5070401;28;20033;-40
2022/08/11 01:04:12;;;;;;;2.85;2.65;;;15.80;87.10;;;;;;5089607;28;20035;-40
2022/08/11 01:06:49;;;;;;;4.70;3.30;;;15.80;89.00;;;;;;5063418;28;20024;-41
2022/08/11 01:09:17;;;;;;;4.22;3.30;;;15.50;91.20;;;;;;5066885;28;20135;-40
2022/08/11 01:11:43;;;;;;;;;;;15.30;93.40;;;;;;5070565;28;20381;-40
2022/08/11 01:14:51;;;;;;;3.33;2.97;;;15.20;93.00;;;;;;5071556;28;19916;-39
2022/08/11 01:17:25;;;;;;;;;;;15.20;93.20;;;;;;5061210;28;20111;-36
2022/08/11 01:20:28;;;;;;;3.60;3.30;;;15.20;92.40;;;;;;5076239;28;19911;-41
2022/08/11 01:22:57;;;;;;;5.10;3.17;;;15.20;92.70;;;;;;5076231;28;20598;-40
2022/08/11 01:25:41;;;;;;;4.47;3.67;;;15.10;93.10;;;;;;5060192;28;20045;-36
2022/08/11 01:28:34;;;;;;;3.28;2.97;;;15.10;93.70;;;;;;5067937;28;20032;-40
2022/08/11 01:31:23;;;;;;;3.55;3.25;;;15.10;93.80;;;;;;5066831;27;20403;-39
2022/08/11 01:34:25;;;;;;;3.13;2.83;;;15.10;93.00;;;;;;5062074;28;20085;-40
2022/08/11 01:36:59;;;;;;;3.85;3.17;;;15.10;92.00;;;;;;5062611;28;20377;-40
2022/08/11 01:39:30;;;;;;;4.10;3.25;;;15.20;91.40;;;;;;5077424;28;20020;-40
2022/08/11 01:45:05;;;;;;;5.10;3.20;;;15.10;91.70;;;;;;5068759;28;20094;-40
2022/08/11 01:47:52;;;;;;;3.03;2.72;;;15.00;91.60;;;;;;5071441;28;20060;-40
2022/08/11 01:50:29;;;;;;;4.07;3.20;;;15.10;91.40;;;;;;5073035;28;20024;-40
2022/08/11 01:53:09;;;;;;;4.18;3.15;;;15.10;91.30;;;;;;5072413;28;20028;-40
2022/08/11 01:56:00;;;;;;;3.17;2.88;;;15.10;91.50;;;;;;5073568;28;20032;-37
2022/08/11 01:59:00;;;;;;;4.82;3.00;;;15.10;91.30;;;;;;5071167;28;20033;-38
2022/08/11 02:01:35;;;;;;;3.90;3.10;;;15.20;91.30;;;;;;5063642;28;20037;-40
2022/08/11 02:04:21;;;;;;;3.75;2.67;;;15.20;90.60;;;;;;5074861;28;20028;-40
2022/08/11 02:07:19;;;;;;;6.45;3.20;;;15.30;90.30;;;;;;5065485;28;20020;-41
2022/08/11 02:13:17;;;;;;;4.30;3.25;;;15.30;90.70;;;;;;5069794;28;20035;-41
2022/08/11 02:15:49;;;;;;;3.75;3.28;;;15.30;90.30;;;;;;5071672;28;20063;-40
2022/08/11 02:24:43;;;;;;;6.13;3.33;;;15.30;88.80;;;;;;5075083;28;20059;-41
2022/08/11 02:27:19;;;;;;;6.70;3.95;;;15.10;89.60;;;;;;5068914;28;20028;-40
2022/08/11 02:30:13;;;;;;;3.72;3.35;;;15.00;90.20;;;;;;5072198;28;20081;-41
2022/08/11 02:33:23;;;;;;;6.13;3.38;;;15.00;90.80;;;;;;5074157;28;20074;-39
2022/08/11 02:36:12;;;;;;;3.88;3.13;;;14.80;91.40;;;;;;5071228;28;20663;-38
2022/08/11 02:39:08;;;;;;;3.33;3.00;;;14.90;91.50;;;;;;5069170;28;20082;-40
2022/08/11 02:42:24;;;;;;;3.75;3.13;;;14.90;91.80;;;;;;5071115;28;20070;-40
2022/08/11 02:45:04;;;;;;;3.80;3.42;;;14.80;92.60;;;;;;5064717;28;20049;-39
2022/08/11 02:47:42;;;;;;;5.72;3.65;;;14.80;92.60;;;;;;5072995;28;20482;-41
2022/08/11 02:50:24;;;;;;;4.38;3.80;;;14.80;92.50;;;;;;5069789;28;20492;-41
2022/08/11 02:53:14;;;;;;;3.65;3.22;;;14.80;92.70;;;;;;5073315;28;20036;-40
2022/08/11 02:55:45;;;;;;;3.72;3.40;;;14.70;93.10;;;;;;5068694;28;20078;-40
2022/08/11 02:58:39;;;;;;;4.78;3.05;;;14.80;92.50;;;;;;5074185;28;20024;-41
2022/08/11 03:01:17;;;;;;;3.60;3.25;;;14.80;92.10;;;;;;5060828;28;20029;-40
2022/08/11 03:03:59;;;;;;;4.55;3.72;;;14.90;90.40;;;;;;5071271;28;20024;-41
2022/08/11 03:06:45;;;;;;;5.28;3.30;;;14.80;90.00;;;;;;5068009;28;20031;-39
2022/08/11 03:09:42;;;;;;;7.97;3.50;;;14.80;89.30;;;;;;5060692;28;20125;-40
2022/08/11 03:18:05;;;;;;;6.70;3.90;;;14.40;93.10;;;;;;5068069;28;20047;-41
2022/08/11 03:20:51;;;;;;;6.65;4.00;;;14.40;93.10;;;;;;5071645;28;20472;-41
2022/08/11 03:23:45;;;;;;;4.45;3.45;;;14.30;93.10;;;;;;5075841;28;20099;-41
2022/08/11 03:26:37;;;;;;;4.25;3.70;;;14.20;93.60;;;;;;5061384;28;20099;-41
2022/08/11 03:29:03;;;;;;;4.80;3.47;;;14.30;93.20;;;;;;5069872;28;20402;-41
2022/08/11 03:31:41;;;;;;;6.60;3.95;;;14.30;93.40;;;;;;5069865;27;20090;-40
2022/08/11 03:34:10;;;;;;;;;;;14.30;93.00;;;;;;5063666;28;20106;-40
2022/08/11 03:37:03;;;;;;;3.88;3.42;;;14.40;94.10;;;;;;5073615;28;19922;-40
2022/08/11 03:39:46;;;;;;;4.03;3.55;;;14.40;93.00;;;;;;5065667;28;20036;-40
2022/08/11 03:42:11;;;;;;;3.35;3.05;;;14.40;92.50;;;;;;5064601;28;20025;-40
2022/08/11 03:44:59;;;;;;;6.97;3.38;;;14.40;92.50;;;;;;5071332;28;20036;-40
2022/08/11 03:47:43;;;;;;;;;;;14.30;93.00;;;;;;5076537;28;20033;-41
2022/08/11 03:50:23;;;;;;;4.47;4.00;;;14.30;93.70;;;;;;5077262;28;19916;-39
2022/08/11 03:53:16;;;;;;;5.18;3.60;;;14.30;93.40;;;;;;5072288;28;20059;-39
2022/08/11 03:56:18;;;;;;;5.13;3.17;;;14.30;93.70;;;;;;5067947;28;20020;-41
2022/08/11 03:59:05;;;;;;;4.90;3.80;;;14.20;93.20;;;;;;5064056;28;20012;-41
2022/08/11 04:01:58;;;;;;;6.30;3.63;;;14.00;93.60;;;;;;5072587;28;20037;-39
2022/08/11 04:04:34;;;;;;;6.25;3.60;;;13.70;95.60;;;;;;5066149;28;20063;-38
2022/08/11 04:07:30;;;;;;;4.35;3.85;;;13.40;96.70;;;;;;5069880;28;20030;-40
2022/08/11 04:10:01;;;;;;;5.45;4.22;;;13.40;98.10;;;;;;5071320;28;20163;-37
2022/08/11 04:12:36;;;;;;;4.45;4.05;;;13.40;98.50;;;;;;5069291;28;20031;-36
2022/08/11 04:17:52;;;;;;;5.20;4.28;;;13.30;99.30;;;;;;5067076;28;20412;-41
2022/08/11 04:20:29;;;;;;;5.65;4.00;;;13.20;99.80;;;;;;5071858;28;20520;-37
2022/08/11 04:23:31;;;;;;;4.63;4.20;;;13.30;99.90;;;;;;5066455;28;20048;-39
2022/08/11 04:26:28;;;;;;;7.82;4.10;;;13.40;99.90;;;;;;5064411;28;20441;-38
2022/08/11 04:29:08;;;;;;;4.85;4.35;;;13.50;99.90;;;;;;5060505;28;20036;-40
2022/08/11 04:31:43;;;;;;;5.00;4.03;;;13.60;99.90;;;;;;5072846;27;20032;-40
2022/08/11 04:34:31;;;;;;;4.40;4.00;;;13.60;99.90;;;;;;5070362;28;20476;-40
2022/08/11 04:37:34;;;;;;;6.15;4.72;;;13.60;99.90;;;;;;5070296;28;20427;-40
2022/08/11 04:40:11;;;;;;;7.28;4.55;;;13.60;99.90;;;;;;5062717;28;20032;-37
2022/08/11 04:43:20;;;;;;;5.22;4.30;;;13.60;99.90;;;;;;5067224;28;20390;-40
2022/08/11 04:46:25;;;;;;;6.75;4.38;;;13.70;99.90;;;;;;5074921;28;20099;-41
2022/08/11 05:07:19;;;;;;;7.05;4.38;;;14.40;99.60;;;;;;5076426;28;20031;-35
2022/08/11 05:10:17;;;;;;;5.20;4.60;;;14.50;98.80;;;;;;5061509;28;20028;-41
2022/08/11 05:12:52;;;;;;;8.10;4.57;;;14.50;99.50;;;;;;5071892;28;20081;-40
2022/08/11 05:36:24;;;;;;;8.05;5.03;;;15.00;99.90;;;;;;5077564;28;20139;-41
2022/08/11 05:58:37;;;;;;;6.30;4.82;;;15.80;99.90;;;;;;5067430;28;20039;-41
2022/08/11 06:01:04;;;;;;;5.53;4.80;;;16.00;99.90;;;;;;5069362;28;20056;-40
2022/08/11 06:04:12;;;;;;;5.70;4.50;;;16.10;99.20;;;;;;5075895;28;20492;-35
2022/08/11 06:06:19;;;;;;;;;;;16.20;99.00;;;;;;5067841;28;21981;-41
2022/08/11 06:08:45;;;;;;;6.10;4.47;;;16.40;99.90;;;;;;5072580;28;19950;-38
2022/08/11 06:11:12;;;;;;;5.18;4.50;;;16.50;98.60;;;;;;5064009;28;20100;-40
2022/08/11 06:13:44;;;;;;;4.97;3.90;;;16.60;99.00;;;;;;5072110;28;20570;-41
2022/08/11 06:16:14;;;;;;;5.28;4.38;;;16.70;97.00;;;;;;5069331;28;20051;-40
2022/08/11 06:18:45;;;;;;;8.50;4.50;;;16.80;97.70;;;;;;5075876;28;20493;-33
2022/08/11 06:21:12;;;;;;;4.30;3.90;;;16.90;99.50;;;;;;5068990;28;20108;-41
2022/08/11 06:23:39;;;;;;;5.38;4.20;;;17.00;97.80;;;;;;5066530;28;20048;-40
2022/08/11 06:26:12;;;;;;;7.47;4.50;;;17.10;96.10;;;;;;5066069;28;20563;-40
2022/08/11 06:28:43;;;;;;;6.07;4.40;;;17.20;96.80;;;;;;5071567;28;20428;-40
2022/08/11 06:31:23;;;;;;;5.50;4.25;;;17.40;95.30;;;;;;5074938;28;20121;-40
2022/08/11 06:34:14;;;;;;;8.30;4.65;;;17.50;94.90;;;;;;5066164;28;20036;-41
2022/08/11 06:37:19;;;;;;;4.40;3.85;;;17.70;95.90;;;;;;5065584;28;20037;-41
2022/08/11 06:40:30;;;;;;;6.32;3.75;;;18.00;95.20;;;;;;5044932;28;20063;-41
2022/08/11 06:43:08;;;;;;;4.75;3.65;;;18.30;92.80;;;;;;5070454;28;20033;-40
2022/08/11 06:46:01;;;;;;;5.30;3.75;;;18.50;90.00;;;;;;5078272;28;20036;-40
2022/08/11 06:48:30;;;;;;;3.92;3.53;;;18.70;82.30;;;;;;5066433;28;20031;-41
2022/08/11 06:51:11;;;;;;;5.55;3.38;;;18.70;85.70;;;;;;5075814;28;20024;-40
2022/08/11 06:53:58;;;;;;;5.13;3.60;;;18.80;81.00;;;;;;5075998;28;20422;-40
2022/08/11 07:02:14;;;;;;;7.03;3.50;;;19.20;82.50;;;;;;5072151;28;20043;-38
2022/08/11 07:04:42;;;;;;;5.50;3.40;;;19.30;76.70;;;;;;5070313;28;20063;-41
2022/08/11 07:15:46;;;;;;;4.80;3.72;;;19.60;76.30;;;;;;5070961;28;20062;-41
2022/08/11 07:30:07;;;;;;;4.07;3.50;;;20.10;73.20;;;;;;5074795;28;20082;-41
2022/08/11 07:32:46;;;;;;;5.35;3.60;;;20.30;70.10;;;;;;5064431;28;20029;-41
2022/08/11 07:35:16;;;;;;;4.95;3.60;;;20.20;70.50;;;;;;5071397;28;20028;-40
2022/08/11 07:37:49;;;;;;;4.53;3.38;;;20.50;74.60;;;;;;5079352;28;20059;-40
2022/08/11 07:40:22;;;;;;;5.63;3.90;;;20.50;70.30;;;;;;5070790;28;20443;-41
2022/08/11 07:42:52;;;;;;;3.58;3.05;;;20.50;69.90;;;;;;5069449;28;20020;-40
2022/08/11 07:53:36;;;;;;;5.00;3.47;;;20.80;65.90;;;;;;5068516;28;20416;-41
2022/08/11 07:56:04;;;;;;;;;;;20.90;64.10;;;;;;5068117;28;20067;-38
2022/08/11 08:17:58;;;;;;;;;;;22.10;58.00;;;;;;5066232;28;20036;-41
2022/08/11 08:20:30;;;;;;;3.80;3.00;;;22.00;58.00;;;;;;5070078;28;19989;-40
2022/08/11 08:22:59;;;;;;;7.25;2.97;;;22.20;57.70;;;;;;5072883;28;20649;-39
2022/08/11 08:25:27;;;;;;;3.35;2.90;;;22.30;57.60;;;;;;5071762;28;20024;-41
2022/08/11 08:27:55;;;;;;;6.30;3.10;;;22.30;59.50;;;;;;5067832;28;20075;-40
2022/08/11 08:33:05;;;;;;;5.35;2.90;;;22.40;62.70;;;;;;5070060;28;20097;-40
2022/08/11 08:35:31;;;;;;;4.13;2.90;;;22.80;57.90;;;;;;5062907;28;20572;-40
2022/08/11 08:37:58;;;;;;;4.57;2.92;;;22.70;54.80;;;;;;5065947;28;20024;-40
2022/08/11 08:40:24;;;;;;;4.53;3.53;;;23.00;57.80;;;;;;5068476;28;20028;-40
2022/08/11 08:43:03;;;;;;;8.55;3.17;;;22.90;57.90;;;;;;5067504;28;20512;-37
2022/08/11 08:45:33;;;;;;;5.10;2.70;;;22.90;52.20;;;;;;5067374;28;20046;-39
2022/08/11 08:48:03;;;;;;;3.97;3.58;;;23.00;55.00;;;;;;5070920;28;20036;-37
2022/08/11 08:53:23;;;;;;;5.07;2.72;;;23.00;53.00;;;;;;5067318;28;20400;-39
2022/08/11 08:55:50;;;;;;;4.22;2.80;;;23.00;53.70;;;;;;5067528;28;20067;-40
2022/08/11 08:58:19;;;;;;;3.20;2.90;;;23.10;51.40;;;;;;5070476;28;20024;-41
2022/08/11 09:00:46;;;;;;;3.30;2.90;;;23.00;52.10;;;;;;5063574;28;20036;-40
2022/08/11 09:03:13;;;;;;;4.05;2.60;;;23.10;54.10;;;;;;5067834;28;20119;-39
2022/08/11 09:05:39;;;;;;;3.90;2.80;;;23.30;52.20;;;;;;5060540;28;20081;-40
2022/08/11 09:08:06;;;;;;;5.82;3.13;;;23.40;50.40;;;;;;5068288;28;20032;-39
2022/08/11 09:10:33;;;;;;;3.22;3.00;;;23.40;48.90;;;;;;5072711;28;20078;-41
2022/08/11 09:13:01;;;;;;;3.50;2.70;;;23.60;51.40;;;;;;5068847;28;20032;-39
2022/08/11 09:15:28;;;;;;;4.13;2.90;;;23.70;50.10;;;;;;5061706;28;20024;-41
2022/08/11 09:18:02;;;;;;;2.80;2.45;;;23.60;52.20;;;;;;5067539;28;20112;-41
2022/08/11 09:20:34;;;;;;;3.00;2.70;;;23.80;51.50;;;;;;5066605;28;20035;-37
2022/08/11 09:28:36;;;;;;;4.45;2.55;;;24.20;46.70;;;;;;5067959;28;20032;-40
2022/08/11 09:31:04;;;;;;;4.82;2.67;;;24.30;47.00;;;;;;5066904;28;20029;-40
2022/08/11 09:33:31;;;;;;;4.28;2.60;;;24.10;48.00;;;;;;5067514;28;20029;-41
2022/08/11 09:40:27;;;;;;;3.08;2.72;;;24.30;46.60;;;;;;5066273;28;20054;-39
2022/08/11 09:41:31;;;;;;;3.00;2.38;;;24.50;49.60;;;;;;5071377;28;20060;-41
2022/08/11 09:46:43;;;;;;;7.63;2.38;;;24.70;45.80;;;;;;5073146;28;20039;-41
2022/08/11 09:49:09;;;;;;;3.58;2.30;;;24.70;45.30;;;;;;5074290;28;20035;-39
2022/08/11 09:51:35;;;;;;;5.15;2.67;;;24.50;42.00;;;;;;5064043;28;20795;-41
2022/08/11 09:54:06;;;;;;;7.90;2.80;;;24.50;42.20;;;;;;5068022;28;20028;-41
2022/08/11 09:59:19;;;;;;;3.67;2.60;;;24.40;42.10;;;;;;5067367;28;20044;-41
2022/08/11 10:01:48;;;;;;;3.28;2.40;;;24.40;41.80;;;;;;5067936;28;20047;-40
2022/08/11 10:04:16;;;;;;;3.63;2.35;;;24.50;42.80;;;;;;5063937;28;20036;-38
2022/08/11 10:07:03;;;;;;;3.53;2.45;;;24.80;42.40;;;;;;5070659;28;20020;-40
2022/08/11 10:09:47;;;;;;;3.50;2.20;;;24.90;43.10;;;;;;5068942;28;20396;-40
2022/08/11 10:12:29;;;;;;;2.55;2.38;;;24.90;42.60;;;;;;5069777;28;20029;-40
2022/08/11 10:20:43;;;;;;;2.70;2.50;;;25.00;40.70;;;;;;5054978;28;20040;-41
2022/08/11 10:28:42;;;;;;;2.53;2.33;;;25.00;42.50;;;;;;5067957;28;20082;-41
2022/08/11 10:33:59;;;;;;;2.33;2.20;;;25.20;44.50;;;;;;5066231;28;20043;-41
2022/08/11 10:36:41;;;;;;;6.57;2.53;;;25.40;42.30;;;;;;5074653;28;20082;-40
2022/08/11 10:39:08;;;;;;;8.18;2.47;;;25.20;39.60;;;;;;5071646;28;20025;-40
2022/08/11 10:44:19;;;;;;;3.42;2.20;;;24.90;40.90;;;;;;5072451;28;20064;-40
2022/08/11 10:49:31;;;;;;;2.42;2.20;;;25.20;41.10;;;;;;5071643;28;20162;-40
2022/08/11 11:00:14;;;;;;;3.25;2.25;;;24.90;40.80;;;;;;5069056;28;20102;-41
2022/08/11 11:02:44;;;;;;;2.25;2.05;;;24.80;40.70;;;;;;5072216;28;20048;-40
2022/08/11 11:05:26;;;;;;;3.13;2.40;;;25.10;42.60;;;;;;5073694;28;20387;-37
2022/08/11 11:08:51;;;;;;;3.88;2.33;;;25.10;41.40;;;;;;5064694;28;20416;-38
2022/08/11 11:10:58;;;;;;;2.85;2.50;;;25.30;41.70;;;;;;5068995;28;20063;-40
2022/08/11 11:18:59;;;;;;;3.60;2.50;;;25.20;40.40;;;;;;5070753;28;20090;-41
2022/08/11 11:21:25;;;;;;;3.63;2.25;;;25.10;40.90;;;;;;5068724;28;20389;-40
2022/08/11 11:23:51;;;;;;;2.53;2.05;;;25.40;41.80;;;;;;5077595;28;20407;-38
2022/08/11 11:26:26;;;;;;;3.58;2.13;;;25.40;39.80;;;;;;5062772;28;20021;-39
2022/08/11 11:29:00;;;;;;;24.50;3.58;;;25.40;40.00;;;;;;5062555;28;20025;-41
2022/08/11 11:32:07;;;;;;;4.07;2.40;;;25.50;42.10;;;;;;5067589;28;20033;-40
2022/08/11 11:34:42;;;;;;;2.72;2.45;;;25.40;42.80;;;;;;5070985;28;20101;-38
2022/08/11 11:37:08;;;;;;;3.10;2.30;;;25.50;42.90;;;;;;5065020;28;20173;-38
2022/08/11 11:39:35;;;;;;;3.10;2.33;;;25.60;44.50;;;;;;5077639;28;20656;-41
2022/08/11 11:42:09;;;;;;;3.70;2.00;;;25.70;44.00;;;;;;5068696;28;20028;-41
2022/08/11 11:44:42;;;;;;;2.17;2.00;;;25.60;40.60;;;;;;5080044;28;20293;-40
2022/08/11 11:47:10;;;;;;;2.28;2.08;;;25.70;44.20;;;;;;5072832;28;20024;-41
2022/08/11 11:49:39;;;;;;;2.20;2.00;;;25.70;42.20;;;;;;5069484;28;20069;-41
2022/08/11 11:52:07;;;;;;;2.40;2.20;;;25.80;41.10;;;;;;5071167;28;20107;-41
2022/08/11 11:54:35;;;;;;;2.83;2.28;;;25.70;43.00;;;;;;5071800;28;20686;-41
2022/08/11 12:02:37;;;;;;;2.42;2.22;;;25.90;40.60;;;;;;5071886;28;20044;-40
2022/08/11 12:05:04;;;;;;;2.88;2.30;;;25.70;39.20;;;;;;5073920;28;20056;-37
2022/08/11 12:10:17;;;;;;;3.50;2.33;;;26.00;43.20;;;;;;5068872;28;20035;-41
2022/08/11 12:15:29;;;;;;;4.30;2.40;;;26.10;40.30;;;;;;5067498;28;20050;-41
2022/08/11 12:17:56;;;;;;;2.37;2.23;;;26.10;38.90;;;;;;5067538;28;20583;-40
2022/08/11 12:20:23;;;;;;;2.58;2.20;;;25.90;38.90;;;;;;5061541;28;20033;-40
2022/08/11 12:28:21;;;;;;;2.38;2.17;;;25.90;41.30;;;;;;5073538;28;20075;-38
2022/08/11 12:30:49;;;;;;;2.30;2.10;;;26.10;40.00;;;;;;5070165;27;20086;-41
2022/08/11 12:33:15;;;;;;;2.38;1.90;;;26.20;40.10;;;;;;5069704;28;20033;-41
2022/08/11 12:35:42;;;;;;;3.55;2.33;;;26.00;40.70;;;;;;5071473;28;20446;-40
2022/08/11 12:38:09;;;;;;;2.60;2.20;;;26.10;39.50;;;;;;5067813;28;20036;-41
2022/08/11 12:46:24;;;;;;;2.42;2.22;;;26.10;41.70;;;;;;5073204;28;20101;-39
2022/08/11 12:52:03;;;;;;;5.63;2.40;;;26.20;37.40;;;;;;5071999;28;20036;-40
2022/08/11 12:54:40;;;;;;;2.30;2.00;;;26.00;37.10;;;;;;5067678;28;20021;-41
2022/08/11 13:05:31;;;;;;;2.38;2.10;;;26.10;37.30;;;;;;5066628;28;20114;-40
2022/08/11 13:08:00;;;;;;;2.25;2.10;;;26.00;38.10;;;;;;5076855;28;20035;-36
2022/08/11 13:13:11;;;;;;;2.83;2.30;;;25.90;39.50;;;;;;5074543;28;20625;-41
2022/08/11 13:15:37;;;;;;;3.75;2.17;;;26.10;42.40;;;;;;5072358;28;20377;-41
2022/08/11 13:18:06;;;;;;;2.15;2.05;;;26.30;38.40;;;;;;5081679;28;20016;-40
2022/08/11 13:20:33;;;;;;;2.72;2.17;;;26.20;36.50;;;;;;5069714;28;20044;-38
2022/08/11 13:22:59;;;;;;;2.08;1.95;;;26.10;37.20;;;;;;5075247;28;20581;-38
2022/08/11 13:25:28;;;;;;;2.47;2.05;;;26.20;37.30;;;;;;5070276;28;20039;-40
2022/08/11 13:27:56;;;;;;;2.08;1.90;;;26.30;36.10;;;;;;5108811;27;20397;-41
2022/08/11 13:33:13;;;;;;;1.95;1.85;;;26.20;36.70;;;;;;5077577;28;20086;-40
2022/08/11 13:35:40;;;;;;;4.72;2.13;;;26.30;35.90;;;;;;5070517;28;20119;-40
2022/08/11 13:38:12;;;;;;;2.25;2.05;;;26.50;37.40;;;;;;5076648;28;20111;-40
2022/08/11 13:40:39;;;;;;;2.05;1.95;;;26.50;36.30;;;;;;5077082;28;20056;-40
2022/08/11 13:43:05;;;;;;;2.20;2.10;;;26.40;35.30;;;;;;5074158;28;20036;-38
2022/08/11 13:45:33;;;;;;;3.40;2.15;;;26.20;36.60;;;;;;5071762;28;20032;-38
2022/08/11 13:47:59;;;;;;;2.50;2.00;;;26.30;34.60;;;;;;5077033;28;20029;-39
2022/08/11 13:53:14;;;;;;;2.08;1.92;;;26.20;36.60;;;;;;5066787;28;20040;-40
2022/08/11 13:55:41;;;;;;;3.28;2.20;;;26.40;37.90;;;;;;5070261;28;20074;-36
2022/08/11 13:58:12;;;;;;;2.47;1.97;;;26.30;36.80;;;;;;5076844;28;20397;-40
2022/08/11 14:00:40;;;;;;;3.72;2.10;;;26.30;35.70;;;;;;5076132;28;20128;-36
2022/08/11 14:03:10;;;;;;;2.60;2.17;;;26.30;35.20;;;;;;5079585;28;20047;-40
2022/08/11 14:05:43;;;;;;;1.83;1.73;;;26.20;36.30;;;;;;5073887;28;20033;-36
2022/08/11 14:08:14;;;;;;;1.83;1.73;;;26.40;36.70;;;;;;5062786;28;20024;-40
2022/08/11 14:10:40;;;;;;;2.35;1.90;;;26.60;37.30;;;;;;5070588;28;20086;-40
2022/08/11 14:16:03;;;;;;;3.30;2.13;;;26.50;36.60;;;;;;5077773;28;20088;-40
2022/08/11 14:18:31;;;;;;;2.10;1.90;;;26.50;36.20;;;;;;5070486;28;20032;-37
2022/08/11 14:23:45;;;;;;;;;;;26.40;36.00;;;;;;5071190;28;19926;-38
2022/08/11 14:26:25;;;;;;;;;;;26.50;36.80;;;;;;5066624;28;19917;-41
2022/08/11 14:28:53;;;;;;;;;;;26.40;35.70;;;;;;5072871;28;19951;-39
2022/08/11 14:31:20;;;;;;;;;;;26.30;35.50;;;;;;5096445;27;19917;-40
2022/08/11 14:33:46;;;;;;;;;;;26.30;35.10;;;;;;5074134;28;19970;-38
2022/08/11 14:36:11;;;;;;;;;;;26.30;35.20;;;;;;5076893;28;19916;-40
2022/08/11 14:38:38;;;;;;;;;;;26.30;34.30;;;;;;5068788;28;20433;-39
2022/08/11 14:49:17;;;;;;;;;;;26.50;33.70;;;;;;5069780;28;19923;-41
2022/08/11 14:51:43;;;;;;;;;;;26.20;34.50;;;;;;5076987;28;19916;-40
2022/08/11 14:56:53;;;;;;;;;;;26.40;35.80;;;;;;5068206;28;19915;-40
2022/08/11 14:59:20;;;;;;;;;;;26.40;35.30;;;;;;5068048;28;19912;-40
2022/08/11 15:04:29;;;;;;;;;;;26.60;35.70;;;;;;5069376;28;19923;-40
2022/08/11 15:06:55;;;;;;;;;;;26.60;34.50;;;;;;5075467;28;19908;-40
2022/08/11 15:09:21;;;;;;;;;;;26.60;36.70;;;;;;5076548;28;19909;-39
2022/08/11 15:17:16;;;;;;;;;;;26.30;35.60;;;;;;5075202;28;19919;-41
2022/08/11 15:24:18;;;;;;;;;;;26.30;35.80;;;;;;5069038;28;19919;-40
2022/08/11 15:25:12;;;;;;;;;;;26.20;35.70;;;;;;5069583;28;19973;-40
2022/08/11 15:38:46;;;;;;;;;;;26.40;33.70;;;;;;5069187;28;19965;-41
2022/08/11 15:46:48;;;;;;;;;;;26.40;33.70;;;;;;5072718;28;19919;-40
2022/08/11 15:49:16;;;;;;;;;;;26.40;33.40;;;;;;5071379;28;19998;-40
2022/08/11 15:51:48;;;;;;;;;;;26.30;33.50;;;;;;5069004;28;19918;-39
2022/08/11 15:54:15;;;;;;;;;;;26.30;33.10;;;;;;5075076;28;20273;-41
2022/08/11 15:56:43;;;;;;;;;;;26.30;34.20;;;;;;5072292;28;20315;-39
2022/08/11 16:04:39;;;;;;;;;;;26.10;32.20;;;;;;5073773;28;19958;-39
2022/08/11 16:07:10;;;;;;;;;;;26.10;33.10;;;;;;5069092;28;19908;-40
2022/08/11 16:09:50;;;;;;;;;;;26.00;32.60;;;;;;5070120;28;20056;-39
2022/08/11 16:12:21;;;;;;;;;;;26.00;32.10;;;;;;5074655;28;19908;-34
2022/08/11 16:17:37;;;;;;;;;;;26.00;32.10;;;;;;5069552;28;19915;-40
2022/08/11 16:20:04;;;;;;;;;;;26.00;31.70;;;;;;5069057;28;19916;-38
2022/08/11 16:22:38;;;;;;;;;;;25.90;32.00;;;;;;5075366;28;19935;-37
2022/08/11 16:25:05;;;;;;;;;;;26.00;32.10;;;;;;5069818;28;19912;-40
2022/08/11 16:27:32;;;;;;;;;;;26.00;31.80;;;;;;5073160;28;19912;-38
2022/08/11 16:29:59;;;;;;;;;;;26.00;31.90;;;;;;5072322;28;19916;-38
2022/08/11 16:32:25;;;;;;;;;;;26.10;32.80;;;;;;5071181;28;19916;-40
2022/08/11 16:40:31;;;;;;;;;;;25.80;31.90;;;;;;5080883;28;19923;-39
2022/08/11 16:48:33;;;;;;;;;;;25.90;32.60;;;;;;5067927;28;19923;-39
2022/08/11 16:50:59;;;;;;;;;;;26.00;32.20;;;;;;5064914;28;19909;-40
2022/08/11 16:53:27;;;;;;;;;;;25.90;32.60;;;;;;5066587;28;19917;-41
2022/08/11 16:55:53;;;;;;;;;;;25.80;32.30;;;;;;5071017;28;19919;-41
2022/08/11 17:01:20;;;;;;;;;;;25.80;32.80;;;;;;5078892;28;20373;-40
2022/08/11 17:14:53;;;;;;;;;;;25.80;32.60;;;;;;5076240;28;20384;-40
2022/08/11 17:17:26;;;;;;;;;;;25.70;32.00;;;;;;5070945;28;19966;-40
2022/08/11 17:19:53;;;;;;;;;;;25.70;31.80;;;;;;5067039;28;20342;-40
2022/08/11 17:25:05;;;;;;;;;;;25.70;31.70;;;;;;5071900;28;19942;-39
2022/08/11 17:27:31;;;;;;;;;;;25.70;34.10;;;;;;5070718;28;19961;-40
2022/08/11 17:29:58;;;;;;;;;;;25.50;33.50;;;;;;5072362;28;20400;-40
2022/08/11 17:35:29;;;;;;;;;;;25.40;32.50;;;;;;5072380;28;20494;-41
2022/08/11 17:38:02;;;;;;;;;;;25.40;32.20;;;;;;5068764;28;19912;-41
2022/08/11 17:40:28;;;;;;;;;;;25.40;32.10;;;;;;5071216;28;19920;-40
2022/08/11 17:48:25;;;;;;;;;;;25.10;32.30;;;;;;5070098;28;19935;-40
2022/08/11 17:50:53;;;;;;;;;;;25.10;32.90;;;;;;5071674;28;19908;-40
2022/08/11 18:01:34;;;;;;;;;;;24.90;33.40;;;;;;5064023;28;19935;-39
2022/08/11 18:04:04;;;;;;;;;;;24.80;33.30;;;;;;5066044;28;19920;-40
2022/08/11 18:06:30;;;;;;;;;;;24.80;32.60;;;;;;5060241;28;19923;-41
